Time;durP1;ratioP1;P1;durP2;ratioP2;P2;SDS_P1;SDS_P2;PMS_P1;PMS_P2;Temp;Humidity;BMP_temperature;BMP_pressure;BME280_temperature;BME280_humidity;BME280_pressure;Samples;Min_cycle;Max_cycle;Signal;HPM_P1;HPM_P2
2023/08/11 00:00:13;;;;;;;14.93;2.92;;;;;;;-144.48;100.00;62369.91;4971210;28;20030;-74
2023/08/11 00:02:38;;;;;;;11.43;2.90;;;;;;;-144.48;100.00;62369.91;4971283;28;20022;-72
2023/08/11 00:05:05;;;;;;;10.82;2.70;;;;;;;-144.48;100.00;62369.91;4968891;28;20019;-72
2023/08/11 00:07:30;;;;;;;13.52;2.90;;;;;;;-144.48;100.00;62369.91;4969071;28;20035;-74
2023/08/11 00:09:56;;;;;;;11.85;4.43;;;;;;;-144.48;100.00;62369.91;4970734;28;20485;-72
2023/08/11 00:12:21;;;;;;;9.68;2.72;;;;;;;-144.48;100.00;62369.91;4968980;28;20501;-74
2023/08/11 00:14:47;;;;;;;16.80;3.30;;;;;;;-144.48;100.00;62369.91;4970029;28;20023;-72
2023/08/11 00:17:12;;;;;;;11.73;2.85;;;;;;;-144.48;100.00;62369.91;4969122;28;20362;-70
2023/08/11 00:19:38;;;;;;;8.80;3.00;;;;;;;-144.48;100.00;62369.91;4970174;28;20106;-70
2023/08/11 00:22:03;;;;;;;10.57;2.83;;;;;;;-144.48;100.00;62369.91;4970132;28;20030;-71
2023/08/11 00:24:29;;;;;;;14.52;3.10;;;;;;;-144.48;100.00;62369.91;4969721;28;20027;-71
2023/08/11 00:26:54;;;;;;;15.77;3.58;;;;;;;-144.48;100.00;62369.91;4969968;28;20082;-71
2023/08/11 00:29:19;;;;;;;17.23;2.67;;;;;;;-144.48;100.00;62369.91;4970247;28;20100;-70
2023/08/11 00:31:46;;;;;;;8.30;2.35;;;;;;;-144.48;100.00;62369.91;4969465;28;20417;-70
2023/08/11 00:34:12;;;;;;;9.27;2.55;;;;;;;-144.48;100.00;62369.91;4969758;28;20019;-71
2023/08/11 00:36:41;;;;;;;5.63;2.20;;;;;;;-144.48;100.00;62369.91;4970000;28;20105;-70
2023/08/11 00:39:07;;;;;;;11.80;2.65;;;;;;;-144.48;100.00;62369.91;4970382;28;20026;-72
2023/08/11 00:41:32;;;;;;;11.77;2.72;;;;;;;-144.48;100.00;62369.91;4969889;28;20019;-72
2023/08/11 00:43:58;;;;;;;6.47;2.60;;;;;;;-144.48;100.00;62369.91;4970968;28;20027;-69
2023/08/11 00:46:24;;;;;;;9.63;2.78;;;;;;;-144.48;100.00;62369.91;4970269;28;20027;-72
2023/08/11 00:48:51;;;;;;;10.85;2.88;;;;;;;-144.48;100.00;62369.91;4970263;28;20719;-71
2023/08/11 00:51:18;;;;;;;9.88;2.65;;;;;;;-144.48;100.00;62369.91;4972069;28;20477;-70
2023/08/11 00:53:47;;;;;;;10.20;2.53;;;;;;;-144.48;100.00;62369.91;4974352;28;20035;-70
2023/08/11 00:56:13;;;;;;;16.63;2.78;;;;;;;-144.48;100.00;62369.91;4973687;28;20037;-70
2023/08/11 00:58:39;;;;;;;8.88;2.33;;;;;;;-144.48;100.00;62369.91;4971896;28;20615;-70
2023/08/11 01:01:05;;;;;;;5.57;2.35;;;;;;;-144.48;100.00;62369.91;4973127;28;20078;-69
2023/08/11 01:03:31;;;;;;;9.05;2.72;;;;;;;-144.48;100.00;62369.91;4961168;28;20114;-71
2023/08/11 01:06:33;;;;;;;9.30;2.70;;;;;;;-144.48;100.00;62369.91;4970849;28;20073;-70
2023/08/11 01:09:29;;;;;;;13.57;2.85;;;;;;;-144.48;100.00;62369.91;4973315;28;20030;-71
2023/08/11 01:12:25;;;;;;;8.13;3.35;;;;;;;-144.48;100.00;62369.91;4972608;28;20446;-72
2023/08/11 01:15:29;;;;;;;16.63;3.72;;;;;;;-144.48;100.00;62369.91;4960562;28;20027;-72
2023/08/11 01:17:56;;;;;;;12.13;2.53;;;;;;;-144.48;100.00;62369.91;4962794;28;20046;-72
2023/08/11 01:20:23;;;;;;;9.13;2.60;;;;;;;-144.48;100.00;62369.91;4972915;28;20030;-71
2023/08/11 01:22:54;;;;;;;6.72;2.50;;;;;;;-144.48;100.00;62369.91;4973150;28;20029;-71
2023/08/11 01:25:20;;;;;;;10.13;2.78;;;;;;;-144.48;100.00;62369.91;4972988;28;20413;-72
2023/08/11 01:27:52;;;;;;;7.90;2.63;;;;;;;-144.48;100.00;62369.91;4972501;28;20026;-72
2023/08/11 01:30:18;;;;;;;9.25;3.00;;;;;;;-144.48;100.00;62369.91;4972480;28;20030;-71
2023/08/11 01:32:44;;;;;;;15.10;2.65;;;;;;;-144.48;100.00;62369.91;4971893;28;20031;-71
2023/08/11 01:35:10;;;;;;;9.25;2.17;;;;;;;-144.48;100.00;62369.91;4968496;28;20053;-72
2023/08/11 01:37:36;;;;;;;11.48;3.65;;;;;;;-144.48;100.00;62369.91;4972685;28;20034;-71
2023/08/11 01:40:10;;;;;;;9.27;2.35;;;;;;;-144.48;100.00;62369.91;4972794;28;20027;-70
2023/08/11 01:42:39;;;;;;;7.10;2.80;;;;;;;-144.48;100.00;62369.91;4972431;28;20023;-73
2023/08/11 01:45:07;;;;;;;6.82;2.65;;;;;;;-144.48;100.00;62369.91;4972026;28;20665;-71
2023/08/11 01:50:02;;;;;;;15.93;3.22;;;;;;;-144.48;100.00;62369.91;5004701;28;20049;-67
2023/08/11 01:52:30;;;;;;;12.65;2.80;;;;;;;-144.48;100.00;62369.91;5007843;28;20033;-70
2023/08/11 01:54:55;;;;;;;9.77;3.08;;;;;;;-144.48;100.00;62369.91;5021688;28;20104;-70
2023/08/11 01:57:21;;;;;;;10.48;2.55;;;;;;;-144.48;100.00;62369.91;5021745;28;20109;-66
2023/08/11 01:59:47;;;;;;;18.63;3.85;;;;;;;-144.48;100.00;62369.91;5027858;28;20436;-69
2023/08/11 02:02:12;;;;;;;12.00;2.63;;;;;;;-144.48;100.00;62369.91;5014315;28;20025;-67
2023/08/11 02:04:38;;;;;;;9.32;2.60;;;;;;;-144.48;100.00;62369.91;5008190;28;20047;-67
2023/08/11 02:07:04;;;;;;;7.43;2.50;;;;;;;-144.48;100.00;62369.91;5008419;28;20264;-69
2023/08/11 02:09:30;;;;;;;6.68;2.70;;;;;;;-144.48;100.00;62369.91;5009129;28;20464;-64
2023/08/11 02:11:55;;;;;;;5.82;2.72;;;;;;;-144.48;100.00;62369.91;5008404;28;20032;-70
2023/08/11 02:14:21;;;;;;;10.73;3.35;;;;;;;-144.48;100.00;62369.91;5014545;28;20140;-68
2023/08/11 02:16:46;;;;;;;10.90;3.30;;;;;;;-144.48;100.00;62369.91;5026977;28;20091;-69
2023/08/11 02:19:12;;;;;;;9.57;3.40;;;;;;;-144.48;100.00;62369.91;5018084;28;20109;-68
2023/08/11 02:21:39;;;;;;;10.90;2.67;;;;;;;-144.48;100.00;62369.91;5009063;28;20022;-68
2023/08/11 02:24:04;;;;;;;7.82;2.60;;;;;;;-144.48;100.00;62369.91;5021584;28;20026;-68
2023/08/11 02:26:29;;;;;;;15.63;2.95;;;;;;;-144.48;100.00;62369.91;5008195;28;20029;-66
2023/08/11 02:28:55;;;;;;;10.25;2.78;;;;;;;-144.48;100.00;62369.91;5027084;28;20117;-69
2023/08/11 02:31:20;;;;;;;8.38;3.20;;;;;;;-144.48;100.00;62369.91;5015099;28;20665;-69
2023/08/11 02:33:46;;;;;;;9.48;2.72;;;;;;;-144.48;100.00;62369.91;5005459;28;20022;-68
2023/08/11 02:36:12;;;;;;;6.82;2.67;;;;;;;-144.48;100.00;62369.91;5007887;28;20080;-65
2023/08/11 02:38:38;;;;;;;12.27;2.88;;;;;;;-144.48;100.00;62369.91;5008686;28;20041;-69
2023/08/11 02:41:03;;;;;;;10.90;2.83;;;;;;;-144.48;100.00;62369.91;5021337;28;20023;-69
2023/08/11 02:43:29;;;;;;;7.50;2.63;;;;;;;-144.48;100.00;62369.91;5008655;28;20120;-65
2023/08/11 02:45:54;;;;;;;6.68;2.72;;;;;;;-144.48;100.00;62369.91;5018963;28;20033;-70
2023/08/11 02:48:19;;;;;;;10.18;2.65;;;;;;;-144.48;100.00;62369.91;5024925;28;20144;-65
2023/08/11 02:50:45;;;;;;;12.82;2.83;;;;;;;-144.48;100.00;62369.91;5020556;28;20040;-69
2023/08/11 02:53:10;;;;;;;8.10;2.40;;;;;;;-144.48;100.00;62369.91;5014468;28;20029;-72
2023/08/11 02:55:36;;;;;;;8.27;2.50;;;;;;;-144.48;100.00;62369.91;5028037;28;20040;-68
2023/08/11 02:58:01;;;;;;;6.00;2.60;;;;;;;-144.48;100.00;62369.91;5008986;28;20026;-67
2023/08/11 03:00:28;;;;;;;9.57;2.50;;;;;;;-144.48;100.00;62369.91;5019934;28;20029;-69
2023/08/11 03:02:54;;;;;;;6.78;2.72;;;;;;;-144.48;100.00;62369.91;5022216;28;20368;-71
2023/08/11 03:05:19;;;;;;;16.05;3.42;;;;;;;-144.48;100.00;62369.91;5007546;28;20441;-69
2023/08/11 03:07:45;;;;;;;12.00;3.03;;;;;;;-144.48;100.00;62369.91;5020029;28;20037;-71
2023/08/11 03:10:10;;;;;;;11.32;2.30;;;;;;;-144.48;100.00;62369.91;5008238;28;20026;-68
2023/08/11 03:12:36;;;;;;;10.15;2.80;;;;;;;-144.48;100.00;62369.91;5007334;28;20025;-67
2023/08/11 03:15:05;;;;;;;9.02;2.55;;;;;;;-144.48;100.00;62369.91;5007184;28;20061;-70
2023/08/11 03:17:30;;;;;;;;;;;;;;;-144.48;100.00;62369.91;5026573;28;20025;-68
2023/08/11 03:19:55;;;;;;;7.70;2.53;;;;;;;-144.48;100.00;62369.91;5025519;28;19913;-67
2023/08/11 03:22:21;;;;;;;7.57;2.83;;;;;;;-144.48;100.00;62369.91;5008921;28;20037;-65
2023/08/11 03:24:46;;;;;;;9.05;2.88;;;;;;;-144.48;100.00;62369.91;5018240;28;20048;-67
2023/08/11 03:27:18;;;;;;;9.60;3.40;;;;;;;-144.48;100.00;62369.91;5009236;28;20621;-68
2023/08/11 03:29:44;;;;;;;12.57;2.97;;;;;;;-144.48;100.00;62369.91;5019559;28;20107;-68
2023/08/11 03:32:09;;;;;;;11.23;3.08;;;;;;;-144.48;100.00;62369.91;5007992;28;20034;-69
2023/08/11 03:34:34;;;;;;;7.55;2.85;;;;;;;-144.48;100.00;62369.91;5007082;28;20037;-69
2023/08/11 03:37:00;;;;;;;11.27;3.40;;;;;;;-144.48;100.00;62369.91;5013688;28;20034;-68
2023/08/11 03:39:25;;;;;;;7.82;3.08;;;;;;;-144.48;100.00;62369.91;5022764;28;20053;-70
2023/08/11 03:41:52;;;;;;;9.75;3.00;;;;;;;-144.48;100.00;62369.91;5014355;28;20502;-66
2023/08/11 03:44:18;;;;;;;11.13;2.95;;;;;;;-144.48;100.00;62369.91;5014964;28;20040;-68
2023/08/11 03:46:43;;;;;;;9.27;3.20;;;;;;;-144.48;100.00;62369.91;5013521;28;20486;-68
2023/08/11 03:49:08;;;;;;;11.70;3.10;;;;;;;-144.48;100.00;62369.91;5021587;28;20030;-64
2023/08/11 03:51:34;;;;;;;16.38;3.42;;;;;;;-144.48;100.00;62369.91;5020519;28;20102;-68
2023/08/11 03:54:02;;;;;;;5.15;2.75;;;;;;;-144.48;100.00;62369.91;5006445;28;20025;-68
2023/08/11 03:56:28;;;;;;;11.30;3.65;;;;;;;-144.48;100.00;62369.91;5012517;28;20037;-68
2023/08/11 03:58:53;;;;;;;8.98;2.83;;;;;;;-144.48;100.00;62369.91;5014066;28;20041;-69
2023/08/11 04:01:19;;;;;;;8.13;2.92;;;;;;;-144.48;100.00;62369.91;5012323;28;20672;-67
2023/08/11 04:03:44;;;;;;;8.80;3.10;;;;;;;-144.48;100.00;62369.91;5014674;28;20401;-72
2023/08/11 04:06:10;;;;;;;16.90;3.72;;;;;;;-144.48;100.00;62369.91;5001996;28;20030;-70
2023/08/11 04:08:35;;;;;;;6.43;2.70;;;;;;;-144.48;100.00;62369.91;4997781;28;20033;-70
2023/08/11 04:11:01;;;;;;;7.82;3.33;;;;;;;-144.48;100.00;62369.91;5013185;28;20041;-65
2023/08/11 04:13:26;;;;;;;12.15;3.47;;;;;;;-144.48;100.00;62369.91;5015389;28;20452;-69
2023/08/11 04:15:52;;;;;;;29.15;4.20;;;;;;;-144.48;100.00;62369.91;5006385;28;20272;-69
2023/08/11 04:18:18;;;;;;;5.85;3.00;;;;;;;-144.48;100.00;62369.91;5007334;28;20109;-67
2023/08/11 04:20:44;;;;;;;12.68;3.38;;;;;;;-144.48;100.00;62369.91;5011240;28;20136;-69
2023/08/11 04:23:09;;;;;;;9.45;3.95;;;;;;;-144.48;100.00;62369.91;5016145;28;20026;-67
2023/08/11 04:25:34;;;;;;;9.40;4.28;;;;;;;-144.48;100.00;62369.91;5008830;28;20562;-68
2023/08/11 04:28:01;;;;;;;27.83;5.32;;;;;;;-144.48;100.00;62369.91;5021738;28;20502;-65
2023/08/11 04:30:27;;;;;;;15.63;4.80;;;;;;;-144.48;100.00;62369.91;5013438;28;20552;-66
2023/08/11 04:32:52;;;;;;;13.27;3.92;;;;;;;-144.48;100.00;62369.91;5012299;28;20104;-69
2023/08/11 04:35:18;;;;;;;12.57;3.75;;;;;;;-144.48;100.00;62369.91;5008565;28;20030;-66
2023/08/11 04:37:44;;;;;;;8.10;3.35;;;;;;;-144.48;100.00;62369.91;5003114;28;20103;-69
2023/08/11 04:40:10;;;;;;;8.98;3.72;;;;;;;-144.48;100.00;62369.91;5010694;28;20523;-66
2023/08/11 04:42:40;;;;;;;13.95;3.97;;;;;;;-144.48;100.00;62369.91;5010557;28;20029;-68
2023/08/11 04:45:05;;;;;;;25.38;4.28;;;;;;;-144.48;100.00;62369.91;5011527;28;20025;-68
2023/08/11 04:47:31;;;;;;;10.35;4.07;;;;;;;-144.48;100.00;62369.91;5010369;28;20041;-69
2023/08/11 04:49:57;;;;;;;11.98;3.80;;;;;;;-144.48;100.00;62369.91;5013573;28;20087;-66
2023/08/11 04:52:22;;;;;;;13.48;3.72;;;;;;;-144.48;100.00;62369.91;5017454;28;20133;-67
2023/08/11 04:54:47;;;;;;;9.05;3.60;;;;;;;-144.48;100.00;62369.91;5012792;28;20018;-67
2023/08/11 04:57:13;;;;;;;14.38;5.32;;;;;;;-144.48;100.00;62369.91;5010493;28;20546;-70
2023/08/11 04:59:38;;;;;;;9.57;3.78;;;;;;;-144.48;100.00;62369.91;5010602;28;20056;-68
2023/08/11 05:02:04;;;;;;;12.85;4.38;;;;;;;-144.48;100.00;62369.91;5011001;28;20022;-70
2023/08/11 05:04:30;;;;;;;16.05;4.68;;;;;;;-144.48;100.00;62369.91;5009693;28;20037;-65
2023/08/11 05:06:55;;;;;;;11.80;3.95;;;;;;;-144.48;100.00;62369.91;5010016;28;20099;-69
2023/08/11 05:09:21;;;;;;;8.75;4.00;;;;;;;-144.48;100.00;62369.91;5030771;28;20482;-68
2023/08/11 05:11:46;;;;;;;16.23;3.95;;;;;;;-144.48;100.00;62369.91;5030466;28;20022;-66
2023/08/11 05:14:15;;;;;;;11.65;4.32;;;;;;;-144.48;100.00;62369.91;5011612;28;20021;-69
2023/08/11 05:16:41;;;;;;;10.23;4.57;;;;;;;-144.48;100.00;62369.91;5010461;28;20022;-68
2023/08/11 05:19:06;;;;;;;8.23;3.85;;;;;;;-144.48;100.00;62369.91;5009703;28;20087;-65
2023/08/11 05:21:32;;;;;;;16.45;4.43;;;;;;;-144.48;100.00;62369.91;5009624;28;20029;-69
2023/08/11 05:23:57;;;;;;;9.50;3.65;;;;;;;-144.48;100.00;62369.91;5010141;28;20111;-70
2023/08/11 05:26:23;;;;;;;13.38;4.60;;;;;;;-144.48;100.00;62369.91;5010498;28;20475;-68
2023/08/11 05:28:48;;;;;;;10.45;4.10;;;;;;;-144.48;100.00;62369.91;5010303;28;20113;-69
2023/08/11 05:31:13;;;;;;;15.70;4.00;;;;;;;-144.48;100.00;62369.91;5010812;28;20025;-69
2023/08/11 05:33:39;;;;;;;19.60;4.13;;;;;;;-144.48;100.00;62369.91;5006603;28;20512;-65
2023/08/11 05:36:04;;;;;;;19.40;4.18;;;;;;;-144.48;100.00;62369.91;5014675;28;20456;-68
2023/08/11 05:38:30;;;;;;;12.30;3.35;;;;;;;-144.48;100.00;62369.91;5023470;28;20033;-69
2023/08/11 05:40:56;;;;;;;14.07;4.22;;;;;;;-144.48;100.00;62369.91;5018883;28;20026;-67
2023/08/11 05:43:21;;;;;;;21.25;4.88;;;;;;;-144.48;100.00;62369.91;5010016;28;20022;-67
2023/08/11 05:45:46;;;;;;;7.00;3.75;;;;;;;-144.48;100.00;62369.91;5009690;28;20625;-67
2023/08/11 05:48:11;;;;;;;16.85;4.10;;;;;;;-144.48;100.00;62369.91;5022994;28;20037;-68
2023/08/11 05:50:39;;;;;;;23.30;4.38;;;;;;;-144.48;100.00;62369.91;5009512;28;20048;-69
2023/08/11 05:53:04;;;;;;;13.50;4.15;;;;;;;-144.48;100.00;62369.91;5010003;28;20034;-71
2023/08/11 05:55:30;;;;;;;15.30;3.58;;;;;;;-144.48;100.00;62369.91;5009911;28;20036;-67
2023/08/11 05:57:55;;;;;;;12.52;4.18;;;;;;;-144.48;100.00;62369.91;5008510;28;20403;-68
2023/08/11 06:00:22;;;;;;;13.90;4.25;;;;;;;-144.48;100.00;62369.91;5009583;28;20042;-70
2023/08/11 06:02:47;;;;;;;10.95;4.80;;;;;;;-144.48;100.00;62369.91;5009285;28;20106;-68
2023/08/11 06:05:12;;;;;;;10.57;4.18;;;;;;;-144.48;100.00;62369.91;5008736;28;20514;-69
2023/08/11 06:07:39;;;;;;;11.48;4.40;;;;;;;-144.48;100.00;62369.91;5021104;28;20022;-66
2023/08/11 06:10:05;;;;;;;18.35;5.80;;;;;;;-144.48;100.00;62369.91;5009056;28;20072;-70
2023/08/11 06:12:31;;;;;;;8.88;3.88;;;;;;;-144.48;100.00;62369.91;5022703;28;20046;-70
2023/08/11 06:14:56;;;;;;;9.88;3.83;;;;;;;-144.48;100.00;62369.91;5009184;28;20095;-70
2023/08/11 06:17:22;;;;;;;16.80;3.70;;;;;;;-144.48;100.00;62369.91;5013787;28;20460;-68
2023/08/11 06:19:47;;;;;;;20.30;4.30;;;;;;;-144.48;100.00;62369.91;5027371;28;20029;-69
2023/08/11 06:22:13;;;;;;;10.52;4.30;;;;;;;-144.48;100.00;62369.91;5009122;28;20473;-68
2023/08/11 06:24:39;;;;;;;12.40;4.00;;;;;;;-144.48;100.00;62369.91;5008898;28;20161;-68
2023/08/11 06:27:04;;;;;;;11.48;4.15;;;;;;;-144.48;100.00;62369.91;5009167;28;20101;-68
2023/08/11 06:29:30;;;;;;;12.95;4.45;;;;;;;-144.48;100.00;62369.91;5018942;28;20065;-68
2023/08/11 06:31:55;;;;;;;10.00;3.83;;;;;;;-144.48;100.00;62369.91;5023480;28;20053;-65
2023/08/11 06:34:21;;;;;;;15.05;3.90;;;;;;;-144.48;100.00;62369.91;5008248;28;20587;-69
2023/08/11 06:36:46;;;;;;;16.10;4.60;;;;;;;-144.48;100.00;62369.91;5008225;28;20380;-69
2023/08/11 06:39:12;;;;;;;12.30;4.13;;;;;;;-144.48;100.00;62369.91;5006991;28;20034;-70
2023/08/11 06:41:38;;;;;;;9.38;3.35;;;;;;;-144.48;100.00;62369.91;5008998;28;20064;-68
2023/08/11 06:44:04;;;;;;;14.82;3.85;;;;;;;-144.48;100.00;62369.91;5008528;28;20026;-67
2023/08/11 06:46:30;;;;;;;16.45;4.03;;;;;;;-144.48;100.00;62369.91;5008282;28;20040;-68
2023/08/11 06:48:55;;;;;;;16.33;3.92;;;;;;;-144.48;100.00;62369.91;5018592;28;20120;-68
2023/08/11 06:51:21;;;;;;;15.70;4.07;;;;;;;-144.48;100.00;62369.91;5020267;28;20044;-70
2023/08/11 06:53:46;;;;;;;17.17;3.55;;;;;;;-144.48;100.00;62369.91;5028201;28;20430;-68
2023/08/11 06:56:12;;;;;;;10.68;3.53;;;;;;;-144.48;100.00;62369.91;5023615;28;20491;-70
2023/08/11 06:58:37;;;;;;;13.07;4.07;;;;;;;-144.48;100.00;62369.91;5008720;28;20056;-71
2023/08/11 07:01:03;;;;;;;11.70;3.80;;;;;;;-144.48;100.00;62369.91;5021901;28;20082;-71
2023/08/11 07:03:28;;;;;;;12.63;3.28;;;;;;;-144.48;100.00;62369.91;5009025;28;20030;-71
2023/08/11 07:05:54;;;;;;;14.52;3.42;;;;;;;-144.48;100.00;62369.91;5011758;28;20037;-67
2023/08/11 07:08:20;;;;;;;13.07;3.83;;;;;;;-144.48;100.00;62369.91;5017365;28;20028;-71
2023/08/11 07:10:46;;;;;;;14.20;3.92;;;;;;;-144.48;100.00;62369.91;5012504;28;20032;-70
2023/08/11 07:13:11;;;;;;;13.05;3.20;;;;;;;-144.48;100.00;62369.91;5017699;28;20038;-70
2023/08/11 07:15:40;;;;;;;11.35;3.33;;;;;;;-144.48;100.00;62369.91;5008301;28;20022;-69
2023/08/11 07:18:06;;;;;;;9.32;3.20;;;;;;;-144.48;100.00;62369.91;5008395;28;20057;-69
2023/08/11 07:20:31;;;;;;;13.80;2.92;;;;;;;-144.48;100.00;62369.91;5003119;28;20105;-70
2023/08/11 07:22:57;;;;;;;13.20;3.00;;;;;;;-144.48;100.00;62369.91;4999198;28;20441;-68
2023/08/11 07:25:22;;;;;;;7.18;2.60;;;;;;;-144.48;100.00;62369.91;5012563;28;20029;-70
2023/08/11 07:27:48;;;;;;;11.93;2.90;;;;;;;-144.48;100.00;62369.91;5016863;28;20034;-68
2023/08/11 07:30:13;;;;;;;8.57;2.92;;;;;;;-144.48;100.00;62369.91;5020976;28;20032;-67
2023/08/11 07:32:38;;;;;;;7.78;2.55;;;;;;;-144.48;100.00;62369.91;5018646;28;20025;-70
2023/08/11 07:35:05;;;;;;;7.97;2.88;;;;;;;-144.48;100.00;62369.91;5010486;28;20013;-66
2023/08/11 07:37:30;;;;;;;9.30;2.33;;;;;;;-144.48;100.00;62369.91;5018888;28;20029;-69
2023/08/11 07:39:56;;;;;;;14.93;2.45;;;;;;;-144.48;100.00;62369.91;5013331;28;20459;-66
2023/08/11 07:42:22;;;;;;;15.38;2.92;;;;;;;-144.48;100.00;62369.91;5028529;28;20041;-70
2023/08/11 07:44:47;;;;;;;6.78;2.88;;;;;;;-144.48;100.00;62369.91;5009609;28;20026;-70
2023/08/11 07:47:12;;;;;;;13.35;3.05;;;;;;;-144.48;100.00;62369.91;5006193;28;20701;-67
2023/08/11 07:49:38;;;;;;;8.60;2.72;;;;;;;-144.48;100.00;62369.91;5021624;28;20107;-69
2023/08/11 07:52:03;;;;;;;10.05;2.30;;;;;;;-144.48;100.00;62369.91;5007578;28;20030;-67
2023/08/11 07:54:29;;;;;;;6.57;2.05;;;;;;;-144.48;100.00;62369.91;5020632;28;20684;-70
2023/08/11 07:56:54;;;;;;;5.35;2.20;;;;;;;-144.48;100.00;62369.91;5016727;28;20040;-70
2023/08/11 07:59:20;;;;;;;10.07;2.20;;;;;;;-144.48;100.00;62369.91;5010967;28;20026;-69
2023/08/11 08:01:45;;;;;;;9.85;2.33;;;;;;;-144.48;100.00;62369.91;5020207;28;20475;-70
2023/08/11 08:04:10;;;;;;;8.05;2.00;;;;;;;-144.48;100.00;62369.91;5015410;28;20078;-70
2023/08/11 08:06:43;;;;;;;5.53;2.05;;;;;;;-144.48;100.00;62369.91;5010947;28;20547;-70
2023/08/11 08:09:11;;;;;;;3.90;1.83;;;;;;;-144.48;100.00;62369.91;5011688;28;20037;-69
2023/08/11 08:11:38;;;;;;;11.98;2.55;;;;;;;-144.48;100.00;62369.91;5021432;28;20124;-69
2023/08/11 08:14:03;;;;;;;5.82;2.00;;;;;;;-144.48;100.00;62369.91;5017742;28;20041;-68
2023/08/11 08:16:29;;;;;;;10.40;2.08;;;;;;;-144.48;100.00;62369.91;5021634;28;20506;-70
2023/08/11 08:18:54;;;;;;;9.95;2.28;;;;;;;-144.48;100.00;62369.91;5024167;28;20622;-68
2023/08/11 08:21:20;;;;;;;10.63;2.35;;;;;;;-144.48;100.00;62369.91;5011013;28;20021;-69
2023/08/11 08:23:47;;;;;;;10.60;2.38;;;;;;;-144.48;100.00;62369.91;5011477;28;20041;-72
2023/08/11 08:26:12;;;;;;;9.13;2.30;;;;;;;-144.48;100.00;62369.91;5011954;28;20053;-70
2023/08/11 08:28:38;;;;;;;11.57;2.60;;;;;;;-144.48;100.00;62369.91;5011184;28;20107;-69
2023/08/11 08:31:05;;;;;;;7.93;2.00;;;;;;;-144.48;100.00;62369.91;5011763;28;20041;-66
2023/08/11 08:33:31;;;;;;;12.05;2.30;;;;;;;-144.48;100.00;62369.91;5011430;28;20374;-69
2023/08/11 08:35:56;;;;;;;10.07;2.05;;;;;;;-144.48;100.00;62369.91;5015392;28;20583;-68
2023/08/11 08:38:21;;;;;;;8.52;1.75;;;;;;;-144.48;100.00;62369.91;5017183;28;20029;-67
2023/08/11 08:40:47;;;;;;;5.75;1.63;;;;;;;-144.48;100.00;62369.91;5023275;28;20080;-67
2023/08/11 08:43:13;;;;;;;10.43;2.60;;;;;;;-144.48;100.00;62369.91;5014787;28;20026;-68
2023/08/11 08:45:42;;;;;;;6.07;1.88;;;;;;;-144.48;100.00;62369.91;5011060;28;20593;-70
2023/08/11 08:48:16;;;;;;;8.48;1.88;;;;;;;-144.48;100.00;62369.91;5028649;28;20140;-70
2023/08/11 08:50:41;;;;;;;4.20;1.50;;;;;;;-144.48;100.00;62369.91;5031116;28;20048;-69
2023/08/11 08:53:08;;;;;;;4.93;1.75;;;;;;;-144.48;100.00;62369.91;5024349;28;20037;-68
2023/08/11 08:55:33;;;;;;;7.55;1.98;;;;;;;-144.48;100.00;62369.91;5011081;28;20053;-68
2023/08/11 08:58:00;;;;;;;20.92;1.90;;;;;;;-144.48;100.00;62369.91;5015896;28;20094;-70
2023/08/11 09:00:26;;;;;;;6.53;1.90;;;;;;;-144.48;100.00;62369.91;5017218;28;20613;-70
2023/08/11 09:02:53;;;;;;;5.68;1.58;;;;;;;-144.48;100.00;62369.91;5023919;28;20145;-70
2023/08/11 09:05:19;;;;;;;7.72;2.20;;;;;;;-144.48;100.00;62369.91;5021501;28;20391;-68
2023/08/11 09:07:44;;;;;;;5.38;1.90;;;;;;;-144.48;100.00;62369.91;5016899;28;20475;-68
2023/08/11 09:10:10;;;;;;;3.75;1.27;;;;;;;-144.48;100.00;62369.91;5011103;28;20029;-69
2023/08/11 09:12:35;;;;;;;6.03;1.33;;;;;;;-144.48;100.00;62369.91;5009326;28;20040;-66
2023/08/11 09:15:07;;;;;;;8.52;1.20;;;;;;;-144.48;100.00;62369.91;5009507;28;20033;-69
2023/08/11 09:17:36;;;;;;;1.52;0.80;;;;;;;-144.48;100.00;62369.91;5008837;28;20045;-66
2023/08/11 09:20:02;;;;;;;1.42;0.80;;;;;;;-144.48;100.00;62369.91;5010616;28;20021;-70
2023/08/11 09:22:32;;;;;;;3.58;0.90;;;;;;;-144.48;100.00;62369.91;5026202;28;20048;-66
2023/08/11 09:24:57;;;;;;;9.85;1.17;;;;;;;-144.48;100.00;62369.91;5016946;28;20439;-69
2023/08/11 09:27:23;;;;;;;3.60;1.10;;;;;;;-144.48;100.00;62369.91;5023451;28;20025;-68
2023/08/11 09:29:49;;;;;;;3.10;1.10;;;;;;;-144.48;100.00;62369.91;5010166;28;20030;-67
2023/08/11 09:32:15;;;;;;;4.45;1.00;;;;;;;-144.48;100.00;62369.91;5016526;28;20104;-72
2023/08/11 09:34:43;;;;;;;12.73;1.55;;;;;;;-144.48;100.00;62369.91;5015314;28;20152;-70
2023/08/11 09:37:09;;;;;;;6.55;1.45;;;;;;;-144.48;100.00;62369.91;5005117;28;20567;-67
2023/08/11 09:39:36;;;;;;;5.00;1.25;;;;;;;-144.48;100.00;62369.91;5008469;28;20029;-69
2023/08/11 09:42:03;;;;;;;5.93;2.47;;;;;;;-144.48;100.00;62369.91;5009511;28;20479;-69
2023/08/11 09:44:29;;;;;;;4.40;1.30;;;;;;;-144.48;100.00;62369.91;5008092;28;20092;-67
2023/08/11 09:46:55;;;;;;;10.55;1.50;;;;;;;-144.48;100.00;62369.91;5009562;28;20053;-70
2023/08/11 09:49:20;;;;;;;7.28;1.25;;;;;;;-144.48;100.00;62369.91;5023490;28;20021;-69
2023/08/11 09:51:49;;;;;;;8.52;1.77;;;;;;;-144.48;100.00;62369.91;5021982;28;20501;-67
2023/08/11 09:54:15;;;;;;;6.22;1.42;;;;;;;-144.48;100.00;62369.91;5010540;28;20053;-69
2023/08/11 09:56:42;;;;;;;3.03;1.20;;;;;;;-144.48;100.00;62369.91;5021026;28;20034;-68
2023/08/11 09:59:19;;;;;;;4.03;1.17;;;;;;;-144.48;100.00;62369.91;5008191;28;20112;-69
2023/08/11 10:01:44;;;;;;;3.53;1.40;;;;;;;-144.48;100.00;62369.91;5020394;28;20024;-69
2023/08/11 10:04:24;;;;;;;3.85;0.93;;;;;;;-144.48;100.00;62369.91;5010104;28;20042;-69
2023/08/11 10:06:56;;;;;;;8.98;1.30;;;;;;;-144.48;100.00;62369.91;5017100;28;20048;-69
2023/08/11 10:09:25;;;;;;;2.47;1.20;;;;;;;-144.48;100.00;62369.91;5023722;28;20076;-69
2023/08/11 10:11:52;;;;;;;3.60;1.40;;;;;;;-144.48;100.00;62369.91;5009481;28;20038;-66
2023/08/11 10:14:20;;;;;;;7.57;1.67;;;;;;;-144.48;100.00;62369.91;5022851;28;20060;-70
2023/08/11 10:16:46;;;;;;;7.70;1.40;;;;;;;-144.48;100.00;62369.91;5010100;28;20026;-71
2023/08/11 10:19:14;;;;;;;7.07;1.15;;;;;;;-144.48;100.00;62369.91;5010663;28;20100;-66
2023/08/11 10:21:40;;;;;;;7.32;1.58;;;;;;;-144.48;100.00;62369.91;5021612;28;20018;-68
2023/08/11 10:24:07;;;;;;;6.50;1.50;;;;;;;-144.48;100.00;62369.91;5008589;28;20111;-70
2023/08/11 10:26:33;;;;;;;2.60;1.10;;;;;;;-144.48;100.00;62369.91;5021726;28;20041;-68
2023/08/11 10:29:00;;;;;;;11.15;1.15;;;;;;;-144.48;100.00;62369.91;5008775;28;20085;-70
2023/08/11 10:31:26;;;;;;;8.95;1.70;;;;;;;-144.48;100.00;62369.91;5021577;28;20558;-72
2023/08/11 10:33:52;;;;;;;1.95;0.88;;;;;;;-144.48;100.00;62369.91;5012077;28;20029;-67
2023/08/11 10:36:25;;;;;;;3.97;1.30;;;;;;;-144.48;100.00;62369.91;5009614;28;20066;-68
2023/08/11 10:39:00;;;;;;;3.95;1.23;;;;;;;-144.48;100.00;62369.91;5011219;28;20075;-68
2023/08/11 10:41:27;;;;;;;2.03;1.00;;;;;;;-144.48;100.00;62369.91;5014249;28;20073;-69
2023/08/11 10:43:54;;;;;;;6.78;1.17;;;;;;;-144.48;100.00;62369.91;5008851;28;20017;-69
2023/08/11 10:46:31;;;;;;;4.35;1.02;;;;;;;-144.48;100.00;62369.91;5008362;28;21798;-70
2023/08/11 10:49:21;;;;;;;2.97;1.10;;;;;;;-144.48;100.00;62369.91;5019532;28;20068;-70
2023/08/11 10:51:46;;;;;;;3.53;1.20;;;;;;;-144.48;100.00;62369.91;4996938;28;20025;-71
2023/08/11 10:54:22;;;;;;;5.47;1.48;;;;;;;-144.48;100.00;62369.91;5022217;28;20399;-70
2023/08/11 10:56:47;;;;;;;3.10;1.00;;;;;;;-144.48;100.00;62369.91;5019838;28;20436;-70
2023/08/11 10:59:15;;;;;;;6.22;1.30;;;;;;;-144.48;100.00;62369.91;5009196;28;20104;-68
2023/08/11 11:01:45;;;;;;;6.50;1.38;;;;;;;-144.48;100.00;62369.91;5009673;28;20076;-71
2023/08/11 11:04:11;;;;;;;6.10;1.45;;;;;;;-144.48;100.00;62369.91;5024935;28;20072;-69
2023/08/11 11:06:37;;;;;;;4.70;1.33;;;;;;;-144.48;100.00;62369.91;5018264;28;20194;-69